Time;durP1;ratioP1;P1;durP2;ratioP2;P2;SDS_P1;SDS_P2;PMS_P1;PMS_P2;Temp;Humidity;BMP_temperature;BMP_pressure;BME280_temperature;BME280_humidity;BME280_pressure;Samples;Min_cycle;Max_cycle;Signal;HPM_P1;HPM_P2
2022/04/04 00:02:23;;;;;;;13.48;8.63;;;;;;;3.04;59.56;95495.53;6242996;22;20079;-83
2022/04/04 00:04:49;;;;;;;20.23;8.77;;;;;;;2.90;60.79;95468.66;6226075;23;20016;-82
2022/04/04 00:07:14;;;;;;;13.52;7.30;;;;;;;2.98;60.62;95472.78;6226812;23;20238;-82
2022/04/04 00:09:40;;;;;;;11.70;7.68;;;;;;;2.66;59.52;95427.63;6228308;22;20015;-82
2022/04/04 00:12:05;;;;;;;12.27;7.78;;;;;;;2.01;60.19;95376.72;6228359;22;20010;-82
2022/04/04 00:14:31;;;;;;;12.65;7.65;;;;;;;1.52;61.61;95277.19;6226238;23;20016;-82
2022/04/04 00:17:00;;;;;;;13.70;8.52;;;;;;;1.69;60.96;95284.47;6228154;22;20015;-82
2022/04/04 00:19:25;;;;;;;18.67;8.80;;;;;;;2.51;60.94;95414.91;6227182;22;20012;-82
2022/04/04 00:21:51;;;;;;;14.63;7.88;;;;;;;2.90;61.17;95468.66;6226312;23;20032;-82
2022/04/04 00:24:16;;;;;;;18.70;8.57;;;;;;;2.91;60.91;95495.66;6225839;23;20415;-82
2022/04/04 00:26:42;;;;;;;18.90;9.75;;;;;;;2.87;61.26;95476.16;6226389;22;20012;-82
2022/04/04 00:29:38;;;;;;;15.23;8.45;;;;;;;2.72;61.57;95466.03;6228027;22;20107;-82
2022/04/04 00:32:05;;;;;;;11.68;6.53;;;;;;;2.10;60.86;95372.81;6224216;23;20022;-82
2022/04/04 00:34:30;;;;;;;12.40;6.40;;;;;;;1.46;60.87;95278.03;6223127;23;20341;-82
2022/04/04 00:36:56;;;;;;;12.20;7.30;;;;;;;2.75;61.76;95478.69;6224071;22;20008;-82
2022/04/04 00:39:21;;;;;;;11.35;6.75;;;;;;;1.90;61.13;95346.84;6227613;23;20321;-83
2022/04/04 00:41:48;;;;;;;10.15;6.03;;;;;;;1.70;60.29;95333.94;6227631;22;20383;-82
2022/04/04 00:44:13;;;;;;;10.90;6.93;;;;;;;1.58;61.40;95325.22;6227451;22;20046;-82
2022/04/04 00:46:43;;;;;;;11.63;6.97;;;;;;;2.58;61.13;95447.03;6228482;23;20012;-82
2022/04/04 00:49:09;;;;;;;16.55;8.30;;;;;;;2.26;61.16;95399.22;6228208;22;20255;-83
2022/04/04 00:51:35;;;;;;;13.00;7.75;;;;;;;2.32;60.87;95416.69;6228607;23;20087;-82
2022/04/04 00:54:02;;;;;;;10.50;6.47;;;;;;;2.58;60.48;95509.09;6226117;23;20059;-83
2022/04/04 00:56:28;;;;;;;11.05;6.25;;;;;;;2.45;60.79;95477.75;6228808;22;20420;-82
2022/04/04 00:58:54;;;;;;;18.90;7.85;;;;;;;2.53;61.28;95491.38;6227351;23;20047;-82
2022/04/04 01:01:22;;;;;;;8.43;6.30;;;;;;;2.18;60.85;95453.66;6227184;23;20070;-83
2022/04/04 01:03:47;;;;;;;10.05;6.25;;;;;;;1.57;61.07;95347.13;6228750;22;20011;-83
2022/04/04 01:06:13;;;;;;;9.98;6.55;;;;;;;2.59;61.17;95531.63;6228948;23;20515;-82
2022/04/04 01:08:38;;;;;;;9.65;6.43;;;;;;;2.17;60.11;95431.91;6229092;22;20015;-82
2022/04/04 01:11:03;;;;;;;10.98;6.20;;;;;;;0.94;60.21;95226.22;6227765;23;20012;-82
2022/04/04 01:13:29;;;;;;;9.65;6.43;;;;;;;1.54;60.40;95335.28;6229501;22;20004;-82
2022/04/04 01:15:54;;;;;;;14.02;6.80;;;;;;;2.71;60.43;95473.09;6226910;23;20012;-83
2022/04/04 01:18:20;;;;;;;10.60;6.35;;;;;;;2.51;60.18;95448.94;6227092;23;20023;-83
2022/04/04 01:20:45;;;;;;;10.05;6.28;;;;;;;1.86;60.32;95348.28;6228842;23;20134;-82
2022/04/04 01:23:21;;;;;;;10.77;6.97;;;;;;;1.90;60.81;95357.31;6229121;22;20077;-82
2022/04/04 01:25:46;;;;;;;10.35;6.20;;;;;;;2.46;59.55;95413.94;6227364;23;20451;-82
2022/04/04 01:28:12;;;;;;;9.60;6.22;;;;;;;2.74;59.60;95450.13;6229308;22;20147;-83
2022/04/04 01:30:38;;;;;;;12.65;6.68;;;;;;;2.52;59.51;95419.09;6232495;22;20367;-83
2022/04/04 01:33:04;;;;;;;9.43;6.38;;;;;;;2.49;59.33;95416.13;6233213;22;20007;-83
2022/04/04 01:35:29;;;;;;;13.13;6.43;;;;;;;2.65;58.97;95446.97;6230384;23;20014;-83
2022/04/04 01:37:54;;;;;;;14.82;6.97;;;;;;;2.38;59.84;95373.13;6231064;23;20043;-83
2022/04/04 01:40:20;;;;;;;8.85;6.20;;;;;;;1.63;58.97;95264.44;6233413;22;20083;-83
2022/04/04 01:42:48;;;;;;;12.90;7.45;;;;;;;2.18;58.45;95320.22;6230942;23;20544;-83
2022/04/04 01:45:14;;;;;;;9.20;5.43;;;;;;;1.75;58.40;95300.13;6229582;23;20046;-84
2022/04/04 01:47:41;;;;;;;10.75;6.38;;;;;;;1.94;58.96;95337.56;6229751;23;20099;-83
2022/04/04 01:50:07;;;;;;;10.07;6.93;;;;;;;2.35;58.84;95412.03;6232920;22;20039;-83
2022/04/04 01:52:32;;;;;;;9.52;5.85;;;;;;;1.99;58.59;95331.66;6229579;23;20447;-83
2022/04/04 01:54:58;;;;;;;10.18;5.45;;;;;;;2.68;58.73;95464.84;6225765;23;20018;-82
2022/04/04 01:57:23;;;;;;;8.95;5.63;;;;;;;1.59;58.83;95310.31;6226260;22;20018;-82
2022/04/04 01:59:49;;;;;;;12.25;6.88;;;;;;;2.90;59.02;95475.72;6224552;23;20090;-82
2022/04/04 02:02:15;;;;;;;10.77;6.43;;;;;;;2.42;58.75;95402.31;6224946;23;20023;-82
2022/04/04 02:04:40;;;;;;;10.45;6.15;;;;;;;1.99;59.18;95345.53;6226418;22;20090;-82
2022/04/04 02:07:06;;;;;;;10.40;6.57;;;;;;;2.31;58.71;95422.13;6224135;23;20018;-82
2022/04/04 02:09:32;;;;;;;9.40;5.90;;;;;;;2.42;58.84;95442.38;6226560;22;20012;-82
2022/04/04 02:11:58;;;;;;;10.05;5.88;;;;;;;1.96;58.82;95353.84;6226633;22;20016;-82
2022/04/04 02:14:23;;;;;;;9.20;6.13;;;;;;;2.83;58.93;95469.72;6225344;23;20122;-82
2022/04/04 02:16:49;;;;;;;10.68;6.50;;;;;;;2.11;58.45;95370.00;6224574;23;20122;-82
2022/04/04 02:19:17;;;;;;;15.23;6.38;;;;;;;1.36;59.15;95224.69;6224052;23;20020;-83
2022/04/04 02:21:43;;;;;;;9.60;6.45;;;;;;;2.59;58.82;95419.03;6226522;22;20015;-82
2022/04/04 02:24:09;;;;;;;13.50;6.45;;;;;;;2.07;58.50;95321.72;6227136;23;20008;-82
2022/04/04 02:26:35;;;;;;;11.73;6.55;;;;;;;2.53;58.73;95418.06;6227402;22;20012;-82
2022/04/04 02:29:00;;;;;;;7.72;5.15;;;;;;;2.32;58.96;95395.75;6225062;23;20012;-82
2022/04/04 02:31:26;;;;;;;9.35;6.13;;;;;;;1.99;58.14;95342.13;6227460;22;20093;-82
2022/04/04 02:33:52;;;;;;;9.43;6.07;;;;;;;2.67;58.62;95448.34;6226874;22;20019;-82
2022/04/04 02:36:20;;;;;;;8.63;6.00;;;;;;;2.32;58.08;95400.19;6225406;23;20040;-82
2022/04/04 02:38:45;;;;;;;12.48;6.63;;;;;;;1.91;58.63;95320.47;6228272;22;20476;-82
2022/04/04 02:41:11;;;;;;;9.13;5.97;;;;;;;2.78;58.16;95451.25;6227233;22;20008;-82
2022/04/04 02:43:36;;;;;;;8.55;5.80;;;;;;;2.80;58.63;95462.34;6227098;22;20079;-82
2022/04/04 02:46:02;;;;;;;9.98;6.03;;;;;;;2.14;57.96;95343.38;6224248;23;20015;-82
2022/04/04 02:48:27;;;;;;;10.05;6.45;;;;;;;2.22;57.78;95344.91;6224243;23;20012;-82
2022/04/04 02:50:53;;;;;;;9.13;6.53;;;;;;;2.24;57.40;95327.19;6224562;23;20119;-82
2022/04/04 02:53:18;;;;;;;10.07;6.53;;;;;;;2.39;57.75;95353.78;6225408;23;20011;-82
2022/04/04 02:58:28;;;;;;;10.95;6.72;;;;;;;2.89;57.88;95443.50;6226013;23;20023;-83
2022/04/04 03:00:54;;;;;;;9.82;6.70;;;;;;;2.48;58.17;95388.34;6224807;23;20011;-82
2022/04/04 03:03:19;;;;;;;9.23;6.75;;;;;;;2.46;57.47;95414.72;6227742;22;20008;-81
2022/04/04 03:05:46;;;;;;;10.85;7.07;;;;;;;1.84;58.18;95316.31;6224902;23;20116;-82
2022/04/04 03:08:12;;;;;;;12.15;7.15;;;;;;;2.02;58.36;95357.41;6224803;23;20019;-82
2022/04/04 03:10:38;;;;;;;9.18;6.78;;;;;;;2.22;58.01;95389.41;6226655;22;20324;-81
2022/04/04 03:13:05;;;;;;;13.50;7.78;;;;;;;1.99;58.18;95350.78;6226962;22;20066;-82
2022/04/04 03:15:34;;;;;;;12.50;7.63;;;;;;;2.78;58.19;95444.22;6225916;23;20030;-82
2022/04/04 03:17:59;;;;;;;17.02;8.07;;;;;;;2.10;57.31;95326.53;6224757;23;20074;-82
2022/04/04 03:20:25;;;;;;;14.90;7.25;;;;;;;2.97;57.41;95445.03;6224804;23;20036;-82
2022/04/04 03:22:54;;;;;;;11.95;6.95;;;;;;;2.01;57.02;95351.38;6227047;22;20008;-81
2022/04/04 03:25:20;;;;;;;14.88;7.68;;;;;;;1.72;58.02;95316.22;6225170;23;20022;-81
2022/04/04 03:27:47;;;;;;;13.07;7.43;;;;;;;1.32;58.40;95273.13;6225748;23;20491;-82
2022/04/04 03:30:18;;;;;;;13.77;7.78;;;;;;;1.73;58.76;95343.19;6224916;23;20447;-82
2022/04/04 03:32:45;;;;;;;15.10;8.05;;;;;;;2.36;59.10;95461.56;6224443;23;20675;-82
2022/04/04 03:35:13;;;;;;;18.05;7.88;;;;;;;0.97;59.37;95250.09;6200744;23;20126;-82
2022/04/04 03:37:38;;;;;;;12.18;8.07;;;;;;;1.44;59.23;95310.66;6227142;22;20012;-82
2022/04/04 03:40:05;;;;;;;14.40;8.00;;;;;;;2.28;59.38;95480.94;6224773;23;20421;-82
2022/04/04 03:42:30;;;;;;;14.50;8.43;;;;;;;2.23;59.56;95478.16;6226908;22;20046;-82
2022/04/04 03:44:56;;;;;;;13.02;8.55;;;;;;;2.41;59.54;95474.00;6226191;23;20020;-82
2022/04/04 03:47:22;;;;;;;12.27;7.97;;;;;;;2.12;60.03;95446.66;6227802;22;20487;-81
2022/04/04 03:49:48;;;;;;;11.77;8.00;;;;;;;1.59;60.00;95344.31;6224161;23;20069;-82
2022/04/04 03:52:14;;;;;;;15.00;8.82;;;;;;;1.73;59.96;95366.72;6227418;22;20478;-81
2022/04/04 03:54:40;;;;;;;12.98;7.82;;;;;;;1.79;59.69;95387.56;6226842;23;20137;-81
2022/04/04 03:57:06;;;;;;;19.55;8.93;;;;;;;2.54;59.54;95489.56;6228044;23;20067;-81
2022/04/04 03:59:31;;;;;;;15.13;8.45;;;;;;;2.05;60.02;95423.19;6225640;23;20169;-81
2022/04/04 04:01:57;;;;;;;12.82;8.82;;;;;;;1.75;59.21;95386.41;6224920;23;20008;-82
2022/04/04 04:04:22;;;;;;;14.48;9.07;;;;;;;2.08;58.91;95417.50;6224031;23;20083;-81
2022/04/04 04:06:47;;;;;;;15.68;8.60;;;;;;;2.01;59.35;95448.16;6223717;23;20493;-81
2022/04/04 04:09:13;;;;;;;15.65;9.30;;;;;;;2.37;59.66;95502.41;6225224;23;20367;-82
2022/04/04 04:11:38;;;;;;;12.80;8.98;;;;;;;1.27;58.92;95335.69;6227538;22;20452;-82
2022/04/04 04:14:05;;;;;;;15.50;8.70;;;;;;;2.38;59.05;95513.66;6226303;23;20447;-82
2022/04/04 04:16:31;;;;;;;13.35;7.93;;;;;;;2.30;58.83;95527.81;6229762;22;20471;-82
2022/04/04 04:18:56;;;;;;;14.32;9.48;;;;;;;2.01;59.05;95469.06;6227626;23;20012;-82
2022/04/04 04:21:22;;;;;;;17.27;9.85;;;;;;;1.64;59.18;95435.94;6227527;23;20008;-81
2022/04/04 04:23:48;;;;;;;15.27;8.95;;;;;;;2.23;59.35;95525.25;6227220;23;20024;-82
2022/04/04 04:26:13;;;;;;;20.95;10.85;;;;;;;1.26;59.79;95388.94;6227650;23;20012;-82
2022/04/04 04:28:40;;;;;;;17.10;10.75;;;;;;;1.71;59.96;95407.94;6226752;22;20438;-82
2022/04/04 04:31:06;;;;;;;19.10;9.57;;;;;;;2.17;59.41;95499.94;6228442;22;20097;-82
2022/04/04 04:33:32;;;;;;;19.75;10.75;;;;;;;2.18;58.96;95487.66;6226949;23;20015;-82
2022/04/04 04:36:00;;;;;;;15.27;10.38;;;;;;;2.09;58.54;95486.31;6227322;23;20356;-82
2022/04/04 04:38:26;;;;;;;15.68;10.35;;;;;;;1.70;59.22;95428.06;6228601;23;20020;-82
2022/04/04 04:40:51;;;;;;;12.43;9.23;;;;;;;1.79;59.18;95457.38;6229787;22;20458;-82
2022/04/04 04:43:17;;;;;;;15.25;10.43;;;;;;;1.20;59.40;95356.63;6231873;22;20008;-83
2022/04/04 04:45:43;;;;;;;14.90;9.95;;;;;;;1.82;58.66;95460.38;6224968;22;20409;-83
2022/04/04 04:48:08;;;;;;;18.50;10.77;;;;;;;2.03;59.32;95480.13;6223885;23;20065;-82
2022/04/04 04:50:34;;;;;;;20.35;10.75;;;;;;;2.51;59.29;95556.28;6223756;22;20019;-83
2022/04/04 04:53:00;;;;;;;15.88;10.50;;;;;;;1.75;58.87;95420.41;6225226;22;20483;-81
2022/04/04 04:55:26;;;;;;;18.17;11.10;;;;;;;2.43;58.82;95514.66;6221507;23;20537;-83
2022/04/04 04:57:53;;;;;;;20.10;9.80;;;;;;;2.45;58.48;95509.19;6219781;23;20022;-81
2022/04/04 05:00:23;;;;;;;18.70;9.73;;;;;;;2.25;58.13;95472.72;6224860;22;20562;-82
2022/04/04 05:03:24;;;;;;;24.88;11.48;;;;;;;2.37;58.76;95486.69;6222957;22;20012;-82
2022/04/04 05:05:39;;;;;;;18.88;9.98;;;;;;;2.79;57.94;95536.69;6226402;23;20020;-82
2022/04/04 05:08:05;;;;;;;21.98;10.57;;;;;;;2.73;58.11;95543.59;6221649;22;20016;-81
2022/04/04 05:10:31;;;;;;;19.95;11.43;;;;;;;2.91;58.83;95555.91;6222718;22;20095;-83
2022/04/04 05:12:57;;;;;;;17.80;10.43;;;;;;;2.83;58.09;95556.19;6215041;23;20549;-82
2022/04/04 05:15:23;;;;;;;25.45;10.80;;;;;;;2.88;58.35;95577.31;6222817;22;20018;-82
2022/04/04 05:17:52;;;;;;;19.42;10.57;;;;;;;2.56;58.50;95514.53;6220794;23;20016;-82
2022/04/04 05:20:21;;;;;;;21.00;10.43;;;;;;;2.61;59.10;95506.81;6223634;22;20008;-82
2022/04/04 05:22:47;;;;;;;21.48;10.25;;;;;;;2.58;58.16;95511.69;6221119;23;20024;-83
2022/04/04 05:25:14;;;;;;;14.85;9.80;;;;;;;2.49;58.18;95497.28;6221533;23;20533;-82
2022/04/04 05:27:39;;;;;;;14.25;8.30;;;;;;;1.76;58.52;95415.94;6222009;23;20432;-83
2022/04/04 05:30:07;;;;;;;19.55;11.73;;;;;;;2.77;59.68;95573.56;6222293;23;20038;-82
2022/04/04 05:32:33;;;;;;;19.02;10.82;;;;;;;2.62;59.87;95552.13;6221498;22;20015;-82
2022/04/04 05:34:58;;;;;;;22.08;10.88;;;;;;;1.97;59.62;95488.84;6220624;23;20148;-82
2022/04/04 05:37:24;;;;;;;15.15;10.27;;;;;;;2.23;59.65;95506.13;6223600;23;20016;-82
2022/04/04 05:39:50;;;;;;;18.42;10.02;;;;;;;1.77;59.52;95434.03;6225655;22;20617;-81
2022/04/04 05:42:16;;;;;;;20.05;9.93;;;;;;;2.70;59.44;95581.47;6225665;22;20410;-82
2022/04/04 05:44:42;;;;;;;14.93;9.40;;;;;;;2.63;60.16;95583.34;6222392;23;20408;-82
2022/04/04 05:47:09;;;;;;;25.63;11.70;;;;;;;2.85;59.95;95593.44;6222434;23;20372;-81
2022/04/04 05:49:35;;;;;;;17.67;10.82;;;;;;;2.36;59.95;95552.38;6227200;22;20008;-81
2022/04/04 05:52:00;;;;;;;18.75;11.70;;;;;;;2.43;60.49;95553.13;6229145;22;20391;-81
2022/04/04 05:54:26;;;;;;;28.20;12.85;;;;;;;2.44;60.09;95544.25;6234828;23;20023;-82
2022/04/04 05:56:51;;;;;;;19.45;10.95;;;;;;;2.26;59.78;95531.91;6232733;23;20063;-82
2022/04/04 05:59:17;;;;;;;24.52;10.82;;;;;;;2.37;59.62;95543.47;6231355;23;20011;-83
2022/04/04 06:01:43;;;;;;;23.73;11.73;;;;;;;2.77;59.55;95610.22;6229384;23;20028;-82
2022/04/04 06:04:09;;;;;;;21.75;10.70;;;;;;;2.50;59.98;95572.19;6228079;23;20008;-83
2022/04/04 06:06:35;;;;;;;21.27;10.77;;;;;;;2.80;60.07;95622.09;6226138;23;20023;-83
2022/04/04 06:09:01;;;;;;;26.63;11.15;;;;;;;2.06;60.37;95526.78;6228559;22;20016;-82
2022/04/04 06:11:26;;;;;;;19.90;9.38;;;;;;;2.37;59.96;95574.88;6228092;22;20410;-82
2022/04/04 06:13:52;;;;;;;20.25;11.75;;;;;;;2.64;60.80;95610.34;6225447;23;20022;-84
2022/04/04 06:16:17;;;;;;;17.98;11.55;;;;;;;1.64;60.66;95415.03;6226695;23;20011;-83
2022/04/04 06:18:43;;;;;;;19.27;10.90;;;;;;;1.72;60.28;95409.56;6228714;22;20046;-82
2022/04/04 06:21:09;;;;;;;19.50;11.80;;;;;;;2.71;60.27;95554.28;6227283;23;20015;-82
2022/04/04 06:23:36;;;;;;;17.55;11.15;;;;;;;2.40;59.78;95494.13;6228419;23;20015;-81
2022/04/04 06:26:04;;;;;;;19.98;10.52;;;;;;;3.12;59.50;95586.16;6233031;22;20012;-82
2022/04/04 06:28:31;;;;;;;20.55;11.07;;;;;;;2.60;59.40;95471.19;6229442;22;20521;-82
2022/04/04 06:30:59;;;;;;;17.75;10.27;;;;;;;2.61;59.58;95511.25;6228063;23;20027;-81
2022/04/04 06:33:26;;;;;;;18.17;9.05;;;;;;;3.06;58.54;95575.50;6228247;23;20078;-83
2022/04/04 06:35:51;;;;;;;13.70;9.57;;;;;;;3.00;59.28;95589.47;6227167;23;20103;-81
2022/04/04 06:38:18;;;;;;;20.40;10.52;;;;;;;2.69;59.18;95521.44;6227365;23;20015;-82
2022/04/04 06:40:45;;;;;;;28.20;11.52;;;;;;;2.78;59.76;95559.44;6227239;23;20406;-82
2022/04/04 06:43:10;;;;;;;20.65;12.55;;;;;;;2.81;59.66;95532.03;6221173;23;20051;-82
2022/04/04 06:45:36;;;;;;;24.52;11.95;;;;;;;2.52;59.35;95478.50;6220909;22;20024;-82
2022/04/04 06:48:01;;;;;;;24.08;11.63;;;;;;;2.83;58.99;95491.50;6223009;22;20386;-82
2022/04/04 06:50:29;;;;;;;17.42;10.90;;;;;;;3.35;58.55;95576.63;6218290;23;20031;-82
2022/04/04 06:52:54;;;;;;;16.80;10.88;;;;;;;2.66;57.88;95469.53;6218040;23;20050;-83
2022/04/04 06:55:20;;;;;;;23.23;14.07;;;;;;;2.76;58.24;95464.56;6218628;23;20443;-82
2022/04/04 06:57:46;;;;;;;19.95;11.63;;;;;;;3.70;57.94;95573.41;6218656;23;20027;-82
2022/04/04 07:00:12;;;;;;;26.38;11.57;;;;;;;3.71;57.35;95578.44;6218968;23;20034;-82
2022/04/04 07:02:39;;;;;;;20.58;12.23;;;;;;;2.99;56.69;95485.69;6219607;23;20008;-82
2022/04/04 07:05:05;;;;;;;24.30;11.20;;;;;;;3.42;56.27;95493.47;6217343;23;20008;-82
2022/04/04 07:07:32;;;;;;;24.13;11.48;;;;;;;4.30;56.42;95612.78;6222887;22;20015;-82
2022/04/04 07:09:59;;;;;;;21.00;11.55;;;;;;;4.38;56.58;95612.47;6219311;23;20475;-83
2022/04/04 07:12:24;;;;;;;27.85;13.02;;;;;;;3.42;56.84;95427.91;6218380;22;20419;-82
2022/04/04 07:14:50;;;;;;;17.02;10.45;;;;;;;4.41;55.55;95568.19;6220295;23;20034;-82
2022/04/04 07:17:15;;;;;;;21.23;12.00;;;;;;;4.10;56.40;95535.13;6216352;23;20012;-82
2022/04/04 07:19:41;;;;;;;18.60;11.93;;;;;;;4.49;55.81;95575.75;6218521;23;20018;-82
2022/04/04 07:22:06;;;;;;;15.07;9.93;;;;;;;4.03;54.78;95528.38;6210673;23;20035;-81
2022/04/04 07:24:32;;;;;;;20.98;11.60;;;;;;;4.28;55.23;95586.75;6219572;22;20372;-82
2022/04/04 07:26:57;;;;;;;19.50;11.02;;;;;;;4.80;54.57;95608.81;6214537;23;20510;-82
2022/04/04 07:29:23;;;;;;;22.25;11.73;;;;;;;4.09;54.83;95504.63;6212477;22;20083;-82
2022/04/04 07:31:49;;;;;;;19.60;11.18;;;;;;;4.39;54.49;95561.53;6220416;23;20019;-82
2022/04/04 07:34:14;;;;;;;16.67;11.25;;;;;;;4.89;54.45;95611.88;6221874;22;20400;-82
2022/04/04 07:36:40;;;;;;;20.75;10.40;;;;;;;4.74;53.41;95624.66;6218652;23;20101;-84
2022/04/04 07:39:06;;;;;;;18.90;10.82;;;;;;;4.44;53.29;95603.69;6217836;23;20091;-82
2022/04/04 07:41:32;;;;;;;16.30;9.57;;;;;;;4.02;53.31;95545.13;6219080;22;20010;-82
2022/04/04 07:44:00;;;;;;;18.63;10.63;;;;;;;4.61;53.50;95629.09;6217002;23;20438;-82
2022/04/04 07:46:26;;;;;;;18.08;10.93;;;;;;;4.42;53.04;95574.25;6217552;23;20051;-82
2022/04/04 07:48:55;;;;;;;16.50;10.25;;;;;;;4.64;53.11;95623.41;6220169;22;20016;-82
2022/04/04 07:51:23;;;;;;;21.38;11.55;;;;;;;3.56;52.94;95401.50;6220020;22;20087;-82
2022/04/04 07:53:49;;;;;;;20.45;10.50;;;;;;;4.62;51.30;95528.25;6216283;23;20007;-82
2022/04/04 07:56:15;;;;;;;18.83;10.10;;;;;;;5.29;51.57;95620.69;6218357;23;20053;-82
2022/04/04 07:58:41;;;;;;;17.65;10.52;;;;;;;5.26;51.49;95581.72;6219575;22;20438;-81
2022/04/04 08:01:06;;;;;;;15.68;10.20;;;;;;;5.74;50.44;95612.19;6215317;23;20012;-82
2022/04/04 08:03:32;;;;;;;18.92;10.60;;;;;;;5.59;50.25;95552.16;6217865;23;20012;-82
2022/04/04 08:05:57;;;;;;;18.23;9.73;;;;;;;5.90;49.61;95582.53;6218646;23;20004;-82
2022/04/04 08:08:23;;;;;;;14.80;9.20;;;;;;;5.82;48.45;95596.81;6221014;22;20132;-82
2022/04/04 08:10:49;;;;;;;21.65;10.48;;;;;;;5.19;49.21;95512.66;6221451;22;20063;-82
2022/04/04 08:13:15;;;;;;;24.33;10.35;;;;;;;5.34;49.33;95533.25;6219910;23;20020;-82
2022/04/04 08:15:40;;;;;;;15.70;10.00;;;;;;;5.33;48.43;95519.28;6222555;22;20019;-82
2022/04/04 08:18:06;;;;;;;17.98;10.00;;;;;;;5.88;48.34;95574.06;6221597;23;20008;-82
2022/04/04 08:20:32;;;;;;;14.85;9.63;;;;;;;5.73;48.19;95497.41;6224318;23;20016;-82
2022/04/04 08:22:57;;;;;;;22.83;10.90;;;;;;;6.61;47.81;95610.16;6224288;23;20497;-82
2022/04/04 08:25:23;;;;;;;12.57;8.93;;;;;;;5.74;47.83;95499.00;6226798;23;20402;-82
2022/04/04 08:27:49;;;;;;;17.08;8.43;;;;;;;5.56;47.39;95486.06;6225773;22;20358;-83
2022/04/04 08:30:17;;;;;;;16.30;10.10;;;;;;;5.85;47.87;95542.94;6226246;22;20459;-82
2022/04/04 08:32:43;;;;;;;15.75;9.02;;;;;;;6.12;48.44;95609.81;6227192;22;20109;-82
2022/04/04 08:35:12;;;;;;;16.42;10.13;;;;;;;6.11;47.54;95597.66;6225001;23;20023;-82
2022/04/04 08:37:39;;;;;;;17.45;9.25;;;;;;;6.19;49.07;95592.03;6227480;22;20460;-82
2022/04/04 08:40:07;;;;;;;20.38;10.77;;;;;;;5.61;48.82;95505.38;6213646;23;20195;-82
2022/04/04 08:42:32;;;;;;;17.75;9.93;;;;;;;5.80;47.96;95493.59;6223117;23;20015;-82
2022/04/04 08:45:00;;;;;;;16.95;10.20;;;;;;;6.73;48.02;95594.28;6224221;22;20027;-82
2022/04/04 08:47:29;;;;;;;16.67;10.27;;;;;;;6.25;48.04;95523.66;6225837;23;20010;-82
2022/04/04 08:49:55;;;;;;;15.13;9.73;;;;;;;6.87;47.23;95582.38;6223888;23;20012;-83
2022/04/04 08:52:22;;;;;;;19.10;9.82;;;;;;;6.51;46.98;95501.94;6226944;22;20071;-82
2022/04/04 08:54:48;;;;;;;13.25;9.18;;;;;;;6.17;46.41;95407.16;6226881;22;20008;-82
2022/04/04 08:57:14;;;;;;;14.45;8.65;;;;;;;6.05;46.53;95387.97;6229201;22;20022;-82
2022/04/04 08:59:40;;;;;;;22.35;10.20;;;;;;;7.11;47.68;95556.63;6226971;23;20257;-82
2022/04/04 09:02:06;;;;;;;15.65;8.70;;;;;;;6.86;46.83;95528.88;6227325;23;20016;-83
2022/04/04 09:04:33;;;;;;;17.85;8.90;;;;;;;6.55;46.79;95490.72;6228771;23;20008;-82
2022/04/04 09:07:05;;;;;;;15.27;8.38;;;;;;;6.23;46.90;95430.91;6228701;23;20217;-82
2022/04/04 09:09:39;;;;;;;18.10;10.00;;;;;;;7.25;46.51;95553.41;6226222;23;20221;-82
2022/04/04 09:12:07;;;;;;;14.65;10.32;;;;;;;6.68;46.18;95459.78;6227142;22;20016;-83
2022/04/04 09:14:53;;;;;;;16.83;10.98;;;;;;;6.93;46.64;95473.34;6225713;23;20018;-82
2022/04/04 09:17:21;;;;;;;20.27;10.88;;;;;;;7.38;46.56;95551.47;6226448;23;20019;-82
2022/04/04 09:19:47;;;;;;;19.65;9.27;;;;;;;7.10;46.09;95497.00;6225128;23;20127;-82
2022/04/04 09:22:14;;;;;;;24.40;9.05;;;;;;;6.18;46.35;95379.75;6225868;23;20040;-82
2022/04/04 09:24:57;;;;;;;14.45;8.75;;;;;;;7.23;46.00;95541.50;6227566;22;20506;-82
2022/04/04 09:27:36;;;;;;;13.48;8.95;;;;;;;7.45;47.30;95539.69;6225814;23;20016;-82
2022/04/04 09:30:20;;;;;;;15.85;9.13;;;;;;;7.57;45.90;95527.16;6225672;23;20355;-83
2022/04/04 09:32:49;;;;;;;16.45;9.45;;;;;;;7.26;46.33;95525.97;6224620;22;20027;-82
2022/04/04 09:35:16;;;;;;;19.10;9.35;;;;;;;7.55;45.54;95513.41;6228236;22;20175;-82
2022/04/04 09:37:52;;;;;;;19.33;9.25;;;;;;;7.54;46.39;95477.53;6229934;22;20019;-82
2022/04/04 09:40:20;;;;;;;14.50;9.52;;;;;;;7.55;45.28;95512.63;6216084;23;20008;-82
2022/04/04 09:42:52;;;;;;;16.02;9.70;;;;;;;7.65;46.06;95513.53;6228522;23;20019;-82
2022/04/04 09:45:18;;;;;;;;;;;;;;;7.81;45.88;95511.06;6229296;22;20023;-82
2022/04/04 09:47:57;;;;;;;18.45;9.10;;;;;;;7.75;46.00;95508.38;6230233;23;19938;-83
2022/04/04 09:50:41;;;;;;;18.45;9.52;;;;;;;7.79;45.79;95439.22;6224875;23;20023;-82
2022/04/04 09:53:19;;;;;;;16.10;9.40;;;;;;;8.07;45.50;95405.44;6223307;23;20073;-82
2022/04/04 09:55:49;;;;;;;17.98;9.30;;;;;;;8.38;44.67;95501.66;6225339;23;20016;-82
2022/04/04 09:58:17;;;;;;;16.38;9.10;;;;;;;7.79;44.50;95403.06;6226011;23;20474;-82
2022/04/04 10:00:44;;;;;;;19.50;9.10;;;;;;;8.15;43.91;95401.53;6226340;23;20042;-83
2022/04/04 10:03:14;;;;;;;18.10;9.40;;;;;;;7.52;43.14;95271.13;6225618;23;20012;-84
2022/04/04 10:05:42;;;;;;;13.65;8.27;;;;;;;9.34;42.49;95475.03;6226515;23;20071;-83
2022/04/04 10:08:09;;;;;;;14.63;8.00;;;;;;;9.76;42.42;95471.47;6226148;23;20012;-83
2022/04/04 10:10:36;;;;;;;22.08;9.40;;;;;;;9.20;40.86;95368.06;6224920;23;20095;-83
2022/04/04 10:13:02;;;;;;;14.20;8.35;;;;;;;9.38;40.68;95390.63;6225652;23;20008;-83
2022/04/04 10:15:27;;;;;;;12.45;8.32;;;;;;;10.45;40.30;95432.88;6227314;23;20003;-83
2022/04/04 10:17:55;;;;;;;17.58;8.95;;;;;;;11.13;40.14;95456.41;6228098;22;20012;-83
2022/04/04 10:20:21;;;;;;;14.68;9.85;;;;;;;11.41;39.37;95445.16;6226533;23;20439;-83
2022/04/04 10:22:50;;;;;;;15.48;9.25;;;;;;;11.17;38.45;95396.41;6225823;23;20012;-83
2022/04/04 10:25:19;;;;;;;18.13;9.13;;;;;;;10.87;38.57;95340.78;6225831;23;20399;-83
2022/04/04 10:27:49;;;;;;;15.95;9.18;;;;;;;10.63;38.57;95324.66;6226071;23;20011;-83
2022/04/04 10:30:18;;;;;;;21.75;9.68;;;;;;;11.87;37.83;95429.03;6225813;23;20090;-83
2022/04/04 10:32:53;;;;;;;21.13;9.35;;;;;;;11.53;38.67;95378.44;6226626;23;20012;-83
2022/04/04 10:35:24;;;;;;;16.27;9.07;;;;;;;12.06;37.96;95427.28;6225347;23;20473;-83
2022/04/04 10:37:50;;;;;;;14.23;8.15;;;;;;;11.70;37.38;95423.25;6225367;23;20431;-83
2022/04/04 10:40:24;;;;;;;13.13;7.95;;;;;;;10.87;38.36;95433.63;6227633;22;20046;-81
2022/04/04 10:43:12;;;;;;;14.38;8.30;;;;;;;10.98;38.53;95424.59;6223992;22;20008;-83
2022/04/04 10:45:49;;;;;;;13.27;7.90;;;;;;;10.90;38.53;95411.88;6227248;23;20402;-83
2022/04/04 10:48:18;;;;;;;19.25;8.57;;;;;;;10.32;40.33;95300.88;6225469;23;20016;-84
2022/04/04 10:50:45;;;;;;;15.38;8.48;;;;;;;10.94;39.86;95378.44;6224839;23;20506;-83
2022/04/04 10:53:10;;;;;;;12.70;8.75;;;;;;;10.60;40.58;95336.63;6228063;22;20012;-83
2022/04/04 10:55:36;;;;;;;12.45;9.32;;;;;;;10.86;40.92;95414.25;6228991;22;20392;-82
2022/04/04 10:58:14;;;;;;;15.20;8.73;;;;;;;10.91;41.08;95403.63;6226507;23;20019;-84
2022/04/04 11:01:01;;;;;;;17.25;8.65;;;;;;;11.24;41.31;95407.50;6226872;23;20062;-82
2022/04/04 11:03:34;;;;;;;11.45;7.38;;;;;;;11.43;40.42;95405.06;6229309;23;20016;-83
2022/04/04 11:09:14;;;;;;;15.60;7.78;;;;;;;11.43;39.86;95400.53;6230309;23;20081;-83
2022/04/04 11:11:52;;;;;;;17.20;7.90;;;;;;;11.39;39.24;95401.34;6226789;23;20102;-84
2022/04/04 11:14:41;;;;;;;17.67;8.50;;;;;;;11.74;38.64;95403.03;6229718;22;20266;-83
2022/04/04 11:17:07;;;;;;;14.38;7.00;;;;;;;11.79;38.60;95395.06;6229290;22;20008;-83
2022/04/04 11:19:57;;;;;;;21.42;9.90;;;;;;;11.50;41.36;95403.69;6228516;23;20018;-83
2022/04/04 11:22:24;;;;;;;16.80;7.95;;;;;;;11.93;37.97;95406.66;6227373;23;20035;-83
2022/04/04 11:25:05;;;;;;;11.93;7.47;;;;;;;11.71;37.50;95342.47;6226869;23;20035;-83
2022/04/04 11:27:36;;;;;;;16.30;9.38;;;;;;;12.19;37.44;95384.16;6230842;22;20019;-84
2022/04/04 11:30:05;;;;;;;16.42;7.68;;;;;;;11.45;37.37;95243.56;6230153;23;20448;-83
2022/04/04 11:32:34;;;;;;;15.20;8.90;;;;;;;12.50;36.99;95394.53;6227912;23;20046;-83
2022/04/04 11:35:01;;;;;;;13.65;8.77;;;;;;;12.31;38.23;95375.81;6229702;23;20011;-83
2022/04/04 11:37:29;;;;;;;11.73;8.00;;;;;;;12.08;39.64;95369.34;6228788;23;20027;-83
2022/04/04 11:40:03;;;;;;;16.88;8.85;;;;;;;11.89;39.01;95270.91;6229614;22;20008;-83